sensor_id;sensor_type;location;lat;lon;timestamp;temperature;humidity
9820;DHT22;4949;48.482;9.206;2023-03-07T00:03:15;4.40;59.80
9820;DHT22;4949;48.482;9.206;2023-03-07T00:08:16;4.40;59.60
9820;DHT22;4949;48.482;9.206;2023-03-07T00:13:19;4.30;59.60
9820;DHT22;4949;48.482;9.206;2023-03-07T00:18:20;4.30;59.20
9820;DHT22;4949;48.482;9.206;2023-03-07T00:23:20;4.20;59.60
9820;DHT22;4949;48.482;9.206;2023-03-07T00:28:21;4.10;59.90
9820;DHT22;4949;48.482;9.206;2023-03-07T00:33:26;4.10;60.00
9820;DHT22;4949;48.482;9.206;2023-03-07T00:38:28;4.10;60.00
9820;DHT22;4949;48.482;9.206;2023-03-07T00:43:30;4.10;60.00
9820;DHT22;4949;48.482;9.206;2023-03-07T00:48:33;4.20;59.70
9820;DHT22;4949;48.482;9.206;2023-03-07T00:53:36;4.10;60.20
9820;DHT22;4949;48.482;9.206;2023-03-07T00:58:40;4.10;60.10
9820;DHT22;4949;48.482;9.206;2023-03-07T01:03:41;4.20;60.30
9820;DHT22;4949;48.482;9.206;2023-03-07T01:08:42;4.20;60.20
9820;DHT22;4949;48.482;9.206;2023-03-07T01:13:43;4.20;60.40
9820;DHT22;4949;48.482;9.206;2023-03-07T01:18:48;4.10;60.50
9820;DHT22;4949;48.482;9.206;2023-03-07T01:23:50;4.50;61.30
9820;DHT22;4949;48.482;9.206;2023-03-07T01:28:54;4.10;60.90
9820;DHT22;4949;48.482;9.206;2023-03-07T01:33:56;4.10;61.10
9820;DHT22;4949;48.482;9.206;2023-03-07T01:39:13;4.50;61.10
9820;DHT22;4949;48.482;9.206;2023-03-07T01:44:21;4.10;60.70
9820;DHT22;4949;48.482;9.206;2023-03-07T01:49:30;4.10;60.60
9820;DHT22;4949;48.482;9.206;2023-03-07T01:54:38;4.10;60.00
9820;DHT22;4949;48.482;9.206;2023-03-07T01:59:45;4.00;59.90
9820;DHT22;4949;48.482;9.206;2023-03-07T02:10:13;4.00;59.50
9820;DHT22;4949;48.482;9.206;2023-03-07T02:15:17;4.00;59.60
9820;DHT22;4949;48.482;9.206;2023-03-07T02:20:24;4.00;58.80
9820;DHT22;4949;48.482;9.206;2023-03-07T02:25:42;4.00;58.70
9820;DHT22;4949;48.482;9.206;2023-03-07T06:25:51;4.20;56.10
9820;DHT22;4949;48.482;9.206;2023-03-07T06:30:56;4.20;56.50
9820;DHT22;4949;48.482;9.206;2023-03-07T06:36:04;4.30;56.20
9820;DHT22;4949;48.482;9.206;2023-03-07T06:41:09;4.40;55.90
9820;DHT22;4949;48.482;9.206;2023-03-07T06:46:10;4.40;55.60
9820;DHT22;4949;48.482;9.206;2023-03-07T06:51:13;4.40;55.70
9820;DHT22;4949;48.482;9.206;2023-03-07T06:56:13;4.40;55.70
9820;DHT22;4949;48.482;9.206;2023-03-07T07:01:18;4.40;55.80
9820;DHT22;4949;48.482;9.206;2023-03-07T07:06:20;4.50;55.70
9820;DHT22;4949;48.482;9.206;2023-03-07T07:11:25;4.40;56.00
9820;DHT22;4949;48.482;9.206;2023-03-07T07:16:28;4.40;55.90
9820;DHT22;4949;48.482;9.206;2023-03-07T07:21:35;4.40;56.10
9820;DHT22;4949;48.482;9.206;2023-03-07T07:26:40;4.40;55.70
9820;DHT22;4949;48.482;9.206;2023-03-07T07:31:44;4.50;55.70
9820;DHT22;4949;48.482;9.206;2023-03-07T07:36:44;4.50;55.30
9820;DHT22;4949;48.482;9.206;2023-03-07T07:41:45;4.60;55.40
9820;DHT22;4949;48.482;9.206;2023-03-07T07:46:47;4.60;55.50
9820;DHT22;4949;48.482;9.206;2023-03-07T07:51:47;4.80;55.10
9820;DHT22;4949;48.482;9.206;2023-03-07T07:56:51;4.80;54.70
9820;DHT22;4949;48.482;9.206;2023-03-07T08:01:51;4.90;55.10
9820;DHT22;4949;48.482;9.206;2023-03-07T08:06:52;4.90;55.00
9820;DHT22;4949;48.482;9.206;2023-03-07T08:11:55;5.00;54.50
9820;DHT22;4949;48.482;9.206;2023-03-07T08:16:56;5.00;54.30
9820;DHT22;4949;48.482;9.206;2023-03-07T08:21:57;5.00;54.30
9820;DHT22;4949;48.482;9.206;2023-03-07T08:26:58;5.10;54.80
9820;DHT22;4949;48.482;9.206;2023-03-07T08:32:02;5.30;54.30
9820;DHT22;4949;48.482;9.206;2023-03-07T08:37:05;5.40;53.20
9820;DHT22;4949;48.482;9.206;2023-03-07T08:42:06;5.30;53.50
9820;DHT22;4949;48.482;9.206;2023-03-07T08:47:07;5.20;53.50
9820;DHT22;4949;48.482;9.206;2023-03-07T08:52:08;5.30;53.40
9820;DHT22;4949;48.482;9.206;2023-03-07T08:57:08;5.30;53.40
9820;DHT22;4949;48.482;9.206;2023-03-07T09:02:10;5.40;53.50
9820;DHT22;4949;48.482;9.206;2023-03-07T09:07:11;5.50;53.10
9820;DHT22;4949;48.482;9.206;2023-03-07T09:12:12;5.60;53.70
9820;DHT22;4949;48.482;9.206;2023-03-07T09:17:12;5.60;52.60
9820;DHT22;4949;48.482;9.206;2023-03-07T09:22:13;5.60;52.10
9820;DHT22;4949;48.482;9.206;2023-03-07T09:27:20;5.60;52.20
9820;DHT22;4949;48.482;9.206;2023-03-07T09:32:21;5.70;52.10
9820;DHT22;4949;48.482;9.206;2023-03-07T09:37:21;5.60;52.60
9820;DHT22;4949;48.482;9.206;2023-03-07T09:47:43;5.50;52.80
9820;DHT22;4949;48.482;9.206;2023-03-07T09:53:38;5.70;52.70
9820;DHT22;4949;48.482;9.206;2023-03-07T09:58:48;5.70;53.20
9820;DHT22;4949;48.482;9.206;2023-03-07T10:03:58;5.80;51.80
9820;DHT22;4949;48.482;9.206;2023-03-07T10:09:01;5.80;51.20
9820;DHT22;4949;48.482;9.206;2023-03-07T10:24:41;5.80;50.90
9820;DHT22;4949;48.482;9.206;2023-03-07T10:29:49;5.80;50.10
9820;DHT22;4949;48.482;9.206;2023-03-07T10:40:27;5.70;48.80
9820;DHT22;4949;48.482;9.206;2023-03-07T10:45:32;5.70;48.80
9820;DHT22;4949;48.482;9.206;2023-03-07T10:50:45;6.00;48.90
9820;DHT22;4949;48.482;9.206;2023-03-07T10:55:50;5.70;48.40
9820;DHT22;4949;48.482;9.206;2023-03-07T11:01:11;5.80;48.50
9820;DHT22;4949;48.482;9.206;2023-03-07T11:06:35;5.90;48.40
9820;DHT22;4949;48.482;9.206;2023-03-07T11:11:37;6.00;48.30
9820;DHT22;4949;48.482;9.206;2023-03-07T11:16:40;5.80;47.90
9820;DHT22;4949;48.482;9.206;2023-03-07T11:21:52;6.00;47.70
9820;DHT22;4949;48.482;9.206;2023-03-07T11:27:00;6.00;47.60
9820;DHT22;4949;48.482;9.206;2023-03-07T11:32:16;6.10;47.60
9820;DHT22;4949;48.482;9.206;2023-03-07T11:37:38;6.20;47.00
9820;DHT22;4949;48.482;9.206;2023-03-07T11:53:35;6.60;46.00
9820;DHT22;4949;48.482;9.206;2023-03-07T12:10:28;6.70;45.80
9820;DHT22;4949;48.482;9.206;2023-03-07T12:21:13;6.70;46.80
9820;DHT22;4949;48.482;9.206;2023-03-07T12:31:50;6.90;47.10
9820;DHT22;4949;48.482;9.206;2023-03-07T12:37:17;6.80;46.40
9820;DHT22;4949;48.482;9.206;2023-03-07T12:52:56;7.90;43.50
9820;DHT22;4949;48.482;9.206;2023-03-07T13:03:39;8.00;42.30
9820;DHT22;4949;48.482;9.206;2023-03-07T13:09:02;8.20;42.30
9820;DHT22;4949;48.482;9.206;2023-03-07T13:14:04;8.20;41.20
9820;DHT22;4949;48.482;9.206;2023-03-07T13:24:35;8.20;41.00
9820;DHT22;4949;48.482;9.206;2023-03-07T13:35:12;7.90;41.80
9820;DHT22;4949;48.482;9.206;2023-03-07T13:55:52;8.00;42.40
9820;DHT22;4949;48.482;9.206;2023-03-07T14:01:05;7.90;42.50
9820;DHT22;4949;48.482;9.206;2023-03-07T14:06:17;8.10;43.20
9820;DHT22;4949;48.482;9.206;2023-03-07T14:11:26;8.10;42.90
9820;DHT22;4949;48.482;9.206;2023-03-07T14:27:32;8.50;42.20
9820;DHT22;4949;48.482;9.206;2023-03-07T14:32:51;8.60;41.70
9820;DHT22;4949;48.482;9.206;2023-03-07T14:37:54;8.60;41.30
9820;DHT22;4949;48.482;9.206;2023-03-07T14:43:08;8.40;42.20
9820;DHT22;4949;48.482;9.206;2023-03-07T14:48:51;8.10;42.10
9820;DHT22;4949;48.482;9.206;2023-03-07T14:53:56;8.00;42.30
9820;DHT22;4949;48.482;9.206;2023-03-07T14:59:00;7.90;42.20
9820;DHT22;4949;48.482;9.206;2023-03-07T15:04:07;7.70;42.60
9820;DHT22;4949;48.482;9.206;2023-03-07T15:09:22;7.90;43.10
9820;DHT22;4949;48.482;9.206;2023-03-07T15:20:06;8.30;42.20
9820;DHT22;4949;48.482;9.206;2023-03-07T15:25:22;8.60;41.50
9820;DHT22;4949;48.482;9.206;2023-03-07T15:30:32;8.90;41.00
9820;DHT22;4949;48.482;9.206;2023-03-07T15:35:34;8.70;40.90
9820;DHT22;4949;48.482;9.206;2023-03-07T15:40:37;8.60;41.20
9820;DHT22;4949;48.482;9.206;2023-03-07T15:45:42;8.70;41.70
9820;DHT22;4949;48.482;9.206;2023-03-07T15:50:51;8.40;41.40
9820;DHT22;4949;48.482;9.206;2023-03-07T15:55:57;8.40;42.00
9820;DHT22;4949;48.482;9.206;2023-03-07T16:01:21;8.10;42.10
9820;DHT22;4949;48.482;9.206;2023-03-07T16:06:41;8.20;42.20
9820;DHT22;4949;48.482;9.206;2023-03-07T16:11:44;8.60;41.80
9820;DHT22;4949;48.482;9.206;2023-03-07T16:16:46;8.90;40.40
9820;DHT22;4949;48.482;9.206;2023-03-07T16:21:47;9.00;40.40
9820;DHT22;4949;48.482;9.206;2023-03-07T16:26:48;9.10;40.20
9820;DHT22;4949;48.482;9.206;2023-03-07T16:31:49;9.20;40.30
9820;DHT22;4949;48.482;9.206;2023-03-07T16:36:50;9.00;40.50
9820;DHT22;4949;48.482;9.206;2023-03-07T16:41:53;9.20;40.60
9820;DHT22;4949;48.482;9.206;2023-03-07T16:47:04;9.30;40.10
9820;DHT22;4949;48.482;9.206;2023-03-07T16:52:13;8.90;40.50
9820;DHT22;4949;48.482;9.206;2023-03-07T16:57:17;8.70;41.20
9820;DHT22;4949;48.482;9.206;2023-03-07T17:02:19;8.40;42.10
9820;DHT22;4949;48.482;9.206;2023-03-07T17:07:21;8.20;42.00
9820;DHT22;4949;48.482;9.206;2023-03-07T17:12:25;8.10;42.30
9820;DHT22;4949;48.482;9.206;2023-03-07T17:17:31;8.20;42.70
9820;DHT22;4949;48.482;9.206;2023-03-07T17:22:33;7.70;43.10
9820;DHT22;4949;48.482;9.206;2023-03-07T17:27:42;7.60;43.60
9820;DHT22;4949;48.482;9.206;2023-03-07T17:32:51;7.80;44.00
9820;DHT22;4949;48.482;9.206;2023-03-07T17:37:52;7.60;43.80
9820;DHT22;4949;48.482;9.206;2023-03-07T17:42:53;7.50;44.10
9820;DHT22;4949;48.482;9.206;2023-03-07T17:47:58;7.50;44.10
9820;DHT22;4949;48.482;9.206;2023-03-07T17:53:04;7.30;44.40
9820;DHT22;4949;48.482;9.206;2023-03-07T17:58:08;7.10;45.40
9820;DHT22;4949;48.482;9.206;2023-03-07T18:03:09;7.10;45.20
9820;DHT22;4949;48.482;9.206;2023-03-07T18:08:10;7.10;45.40
9820;DHT22;4949;48.482;9.206;2023-03-07T18:13:13;7.00;45.70
9820;DHT22;4949;48.482;9.206;2023-03-07T18:18:16;6.80;46.00
9820;DHT22;4949;48.482;9.206;2023-03-07T18:23:19;6.80;46.20
9820;DHT22;4949;48.482;9.206;2023-03-07T18:28:22;6.80;46.90
9820;DHT22;4949;48.482;9.206;2023-03-07T18:33:23;6.50;47.00
9820;DHT22;4949;48.482;9.206;2023-03-07T18:38:27;6.60;46.80
9820;DHT22;4949;48.482;9.206;2023-03-07T18:43:28;6.40;47.10
9820;DHT22;4949;48.482;9.206;2023-03-07T18:48:29;6.40;47.30
9820;DHT22;4949;48.482;9.206;2023-03-07T18:53:33;6.30;47.40
9820;DHT22;4949;48.482;9.206;2023-03-07T18:58:34;6.20;47.50
9820;DHT22;4949;48.482;9.206;2023-03-07T19:03:38;6.10;47.90
9820;DHT22;4949;48.482;9.206;2023-03-07T19:08:42;6.20;47.60
9820;DHT22;4949;48.482;9.206;2023-03-07T19:13:43;6.20;47.90
9820;DHT22;4949;48.482;9.206;2023-03-07T19:18:44;6.30;48.00
9820;DHT22;4949;48.482;9.206;2023-03-07T19:23:47;6.10;47.80
9820;DHT22;4949;48.482;9.206;2023-03-07T19:28:52;6.00;48.00
9820;DHT22;4949;48.482;9.206;2023-03-07T19:33:57;6.00;47.80
9820;DHT22;4949;48.482;9.206;2023-03-07T19:38:58;5.80;48.40
9820;DHT22;4949;48.482;9.206;2023-03-07T19:44:01;5.70;48.40
9820;DHT22;4949;48.482;9.206;2023-03-07T19:49:05;5.60;48.90
9820;DHT22;4949;48.482;9.206;2023-03-07T19:54:08;5.50;49.30
9820;DHT22;4949;48.482;9.206;2023-03-07T19:59:11;5.60;48.90
9820;DHT22;4949;48.482;9.206;2023-03-07T20:04:17;5.60;48.70
9820;DHT22;4949;48.482;9.206;2023-03-07T20:09:18;5.60;48.80
9820;DHT22;4949;48.482;9.206;2023-03-07T20:14:21;5.50;48.80
9820;DHT22;4949;48.482;9.206;2023-03-07T20:19:22;5.60;48.80
9820;DHT22;4949;48.482;9.206;2023-03-07T20:24:23;5.50;49.20
9820;DHT22;4949;48.482;9.206;2023-03-07T20:29:24;5.50;49.00
9820;DHT22;4949;48.482;9.206;2023-03-07T20:34:26;5.50;49.00
9820;DHT22;4949;48.482;9.206;2023-03-07T20:39:29;5.40;49.10
9820;DHT22;4949;48.482;9.206;2023-03-07T20:44:33;5.30;49.30
9820;DHT22;4949;48.482;9.206;2023-03-07T20:49:33;5.30;49.10
9820;DHT22;4949;48.482;9.206;2023-03-07T20:54:34;5.20;49.30
9820;DHT22;4949;48.482;9.206;2023-03-07T20:59:35;5.20;49.40
9820;DHT22;4949;48.482;9.206;2023-03-07T21:04:36;5.30;49.30
9820;DHT22;4949;48.482;9.206;2023-03-07T21:09:36;5.20;49.80
9820;DHT22;4949;48.482;9.206;2023-03-07T21:14:37;5.20;49.50
9820;DHT22;4949;48.482;9.206;2023-03-07T21:19:38;5.30;49.50
9820;DHT22;4949;48.482;9.206;2023-03-07T21:24:39;5.30;49.60
9820;DHT22;4949;48.482;9.206;2023-03-07T21:29:40;5.30;49.70
9820;DHT22;4949;48.482;9.206;2023-03-07T21:34:40;5.10;49.80
9820;DHT22;4949;48.482;9.206;2023-03-07T21:39:41;5.20;50.10
9820;DHT22;4949;48.482;9.206;2023-03-07T21:44:44;5.10;50.20
9820;DHT22;4949;48.482;9.206;2023-03-07T21:49:45;5.20;50.00
9820;DHT22;4949;48.482;9.206;2023-03-07T21:54:48;5.10;50.10
9820;DHT22;4949;48.482;9.206;2023-03-07T21:59:49;5.10;50.30
9820;DHT22;4949;48.482;9.206;2023-03-07T22:04:49;5.20;50.10
9820;DHT22;4949;48.482;9.206;2023-03-07T22:09:50;5.10;50.00
9820;DHT22;4949;48.482;9.206;2023-03-07T22:14:53;5.10;50.00
9820;DHT22;4949;48.482;9.206;2023-03-07T22:19:54;5.00;50.40
9820;DHT22;4949;48.482;9.206;2023-03-07T22:24:57;5.00;50.50
9820;DHT22;4949;48.482;9.206;2023-03-07T22:29:58;5.00;50.50
9820;DHT22;4949;48.482;9.206;2023-03-07T22:35:02;5.10;51.00
9820;DHT22;4949;48.482;9.206;2023-03-07T22:40:03;5.00;50.70
9820;DHT22;4949;48.482;9.206;2023-03-07T22:45:07;4.90;50.50
9820;DHT22;4949;48.482;9.206;2023-03-07T22:50:08;4.90;50.40
9820;DHT22;4949;48.482;9.206;2023-03-07T22:55:14;5.00;50.40
9820;DHT22;4949;48.482;9.206;2023-03-07T23:00:15;4.90;50.40
9820;DHT22;4949;48.482;9.206;2023-03-07T23:05:18;5.00;50.20
9820;DHT22;4949;48.482;9.206;2023-03-07T23:10:19;4.90;50.70
9820;DHT22;4949;48.482;9.206;2023-03-07T23:15:20;4.90;50.40
9820;DHT22;4949;48.482;9.206;2023-03-07T23:20:22;5.00;50.80
9820;DHT22;4949;48.482;9.206;2023-03-07T23:25:25;5.00;51.10
9820;DHT22;4949;48.482;9.206;2023-03-07T23:30:26;4.90;51.30
9820;DHT22;4949;48.482;9.206;2023-03-07T23:35:27;4.80;51.50
9820;DHT22;4949;48.482;9.206;2023-03-07T23:40:33;5.00;52.00
9820;DHT22;4949;48.482;9.206;2023-03-07T23:45:34;4.90;51.80
9820;DHT22;4949;48.482;9.206;2023-03-07T23:50:37;5.00;52.30
9820;DHT22;4949;48.482;9.206;2023-03-07T23:55:42;4.90;52.00
